createdAt,value
2022-10-14T00:01:20.645Z,8.95
2022-10-14T00:03:48.288Z,9.55
2022-10-14T00:06:20.608Z,10.40
2022-10-14T00:08:47.873Z,10.18
2022-10-14T00:11:19.008Z,11.15
2022-10-14T00:13:46.468Z,9.70
2022-10-14T00:16:26.374Z,10.73
2022-10-14T00:18:53.383Z,11.15
2022-10-14T00:21:20.929Z,11.40
2022-10-14T00:23:49.649Z,9.95
2022-10-14T00:26:31.824Z,10.70
2022-10-14T00:29:00.736Z,9.55
2022-10-14T00:31:32.059Z,10.27
2022-10-14T00:33:59.193Z,12.10
2022-10-14T00:36:27.730Z,10.68
2022-10-14T00:38:55.732Z,11.50
2022-10-14T00:41:31.971Z,10.43
2022-10-14T00:44:18.833Z,9.02
2022-10-14T00:46:50.423Z,10.27
2022-10-14T00:49:21.692Z,10.48
2022-10-14T00:52:16.457Z,10.75
2022-10-14T00:54:51.002Z,10.77
2022-10-14T00:57:18.511Z,11.82
2022-10-14T00:59:46.251Z,11.65
2022-10-14T01:02:13.667Z,11.07
2022-10-14T01:04:42.924Z,10.45
2022-10-14T01:07:34.014Z,10.50
2022-10-14T01:10:09.913Z,11.85
2022-10-14T01:12:52.440Z,10.95
2022-10-14T01:18:41.669Z,10.40
2022-10-14T01:21:24.238Z,10.98
2022-10-14T01:24:13.734Z,11.25
2022-10-14T01:27:06.615Z,9.82
2022-10-14T01:29:42.712Z,9.30
2022-10-14T01:32:31.071Z,8.43
2022-10-14T01:35:06.922Z,9.45
2022-10-14T01:37:39.607Z,8.70
2022-10-14T01:40:13.808Z,9.20
2022-10-14T01:42:44.265Z,9.15
2022-10-14T01:45:18.092Z,9.20
2022-10-14T01:47:49.426Z,9.07
2022-10-14T01:50:19.891Z,9.82
2022-10-14T01:52:58.372Z,7.95
2022-10-14T01:55:30.475Z,9.20
2022-10-14T01:57:58.603Z,8.85
2022-10-14T02:00:25.803Z,9.07
2022-10-14T02:02:52.694Z,8.52
2022-10-14T02:05:39.318Z,9.23
2022-10-14T02:08:36.122Z,7.18
2022-10-14T02:11:12.545Z,7.25
2022-10-14T02:13:54.302Z,8.27
2022-10-14T02:16:34.032Z,7.70
2022-10-14T02:19:23.982Z,6.63
2022-10-14T02:22:14.565Z,7.18
2022-10-14T02:24:47.725Z,7.47
2022-10-14T02:27:18.643Z,6.63
2022-10-14T02:29:47.283Z,6.80
2022-10-14T02:32:19.594Z,6.57
2022-10-14T02:34:50.924Z,6.10
2022-10-14T02:37:20.023Z,6.28
2022-10-14T02:40:04.983Z,6.03
2022-10-14T02:42:32.171Z,5.82
2022-10-14T02:45:01.191Z,5.00
2022-10-14T02:47:28.776Z,5.75
2022-10-14T02:49:55.822Z,6.68
2022-10-14T02:52:24.854Z,5.10
2022-10-14T02:54:53.547Z,5.80
2022-10-14T02:57:20.405Z,5.63
2022-10-14T02:59:48.578Z,5.60
2022-10-14T03:02:17.247Z,6.40
2022-10-14T03:04:44.140Z,4.88
2022-10-14T03:07:11.546Z,6.20
2022-10-14T03:09:46.094Z,5.75
2022-10-14T03:12:13.395Z,5.45
2022-10-14T03:14:40.730Z,5.88
2022-10-14T03:17:12.228Z,5.88
2022-10-14T03:19:40.002Z,6.07
2022-10-14T03:22:08.152Z,5.03
2022-10-14T03:24:36.883Z,6.43
2022-10-14T03:27:33.489Z,5.88
2022-10-14T03:30:06.794Z,5.63
2022-10-14T03:32:37.245Z,5.95
2022-10-14T03:35:22.705Z,5.05
2022-10-14T03:37:54.885Z,4.53
2022-10-14T03:40:28.061Z,6.05
2022-10-14T03:42:58.594Z,6.03
2022-10-14T03:45:28.580Z,6.38
2022-10-14T03:47:56.951Z,5.63
2022-10-14T03:50:25.057Z,5.90
2022-10-14T03:52:55.887Z,5.57
2022-10-14T03:55:29.992Z,6.25
2022-10-14T03:57:57.711Z,5.65
2022-10-14T04:00:24.743Z,5.63
2022-10-14T04:03:03.955Z,6.50
2022-10-14T04:05:38.415Z,5.95
2022-10-14T04:08:11.693Z,5.82
2022-10-14T04:10:42.412Z,5.70
2022-10-14T04:13:12.431Z,5.88
2022-10-14T04:15:40.431Z,6.20
2022-10-14T04:18:20.545Z,5.22
2022-10-14T04:20:49.416Z,5.50
2022-10-14T04:23:19.474Z,6.70
2022-10-14T04:25:51.623Z,6.82
2022-10-14T04:28:18.674Z,6.28
2022-10-14T04:30:56.710Z,5.32
2022-10-14T04:33:28.660Z,4.80
2022-10-14T04:36:00.084Z,6.53
2022-10-14T04:38:33.470Z,4.50
2022-10-14T04:41:05.488Z,5.43
2022-10-14T04:43:35.057Z,4.72
2022-10-14T04:46:17.027Z,4.85
2022-10-14T04:48:44.068Z,5.07
2022-10-14T04:51:11.837Z,5.43
2022-10-14T04:53:48.560Z,4.72
2022-10-14T04:56:34.212Z,4.80
2022-10-14T04:59:04.878Z,4.63
2022-10-14T05:01:59.106Z,4.88
2022-10-14T05:04:35.862Z,4.07
2022-10-14T05:07:10.008Z,4.68
2022-10-14T05:09:37.918Z,4.38
2022-10-14T05:12:11.851Z,4.47
2022-10-14T05:14:46.641Z,4.63
2022-10-14T05:17:21.055Z,3.83
2022-10-14T05:19:48.510Z,4.38
2022-10-14T05:22:17.286Z,4.78
2022-10-14T05:24:46.055Z,4.15
2022-10-14T05:27:13.680Z,3.88
2022-10-14T05:29:41.645Z,4.45
2022-10-14T05:32:09.253Z,5.10
2022-10-14T05:34:43.615Z,4.15
2022-10-14T05:37:16.777Z,5.45
2022-10-14T05:39:50.631Z,4.75
2022-10-14T05:42:20.839Z,5.32
2022-10-14T05:44:49.675Z,4.20
2022-10-14T05:47:17.013Z,5.13
2022-10-14T05:49:49.916Z,4.82
2022-10-14T05:52:18.143Z,5.40
2022-10-14T05:54:45.723Z,5.78
2022-10-14T05:57:17.297Z,4.88
2022-10-14T05:59:44.447Z,4.65
2022-10-14T06:02:11.496Z,4.43
2022-10-14T06:04:41.061Z,5.82
2022-10-14T06:07:12.108Z,4.57
2022-10-14T06:09:39.353Z,5.28
2022-10-14T06:12:06.775Z,4.93
2022-10-14T06:14:33.903Z,3.83
2022-10-14T06:17:04.287Z,4.95
2022-10-14T06:19:34.647Z,4.07
2022-10-14T06:22:01.939Z,5.07
2022-10-14T06:24:28.899Z,4.30
2022-10-14T06:26:55.818Z,4.15
2022-10-14T06:29:26.316Z,4.97
2022-10-14T06:31:53.236Z,3.80
2022-10-14T06:34:23.054Z,4.60
2022-10-14T06:36:49.993Z,4.35
2022-10-14T06:39:16.858Z,4.38
2022-10-14T06:41:44.325Z,4.43
2022-10-14T06:44:19.251Z,4.50
2022-10-14T06:46:46.239Z,3.53
2022-10-14T06:49:13.653Z,3.30
2022-10-14T06:51:40.646Z,3.80
2022-10-14T06:54:08.152Z,4.78
2022-10-14T06:56:35.201Z,4.38
2022-10-14T06:59:02.457Z,3.63
2022-10-14T07:01:29.443Z,3.50
2022-10-14T07:06:58.654Z,3.58
2022-10-14T07:09:25.652Z,3.00
2022-10-14T07:11:52.552Z,4.30
2022-10-14T07:14:19.685Z,4.13
2022-10-14T07:16:46.899Z,3.80
2022-10-14T07:19:14.183Z,3.10
2022-10-14T07:21:46.550Z,3.50
2022-10-14T07:24:13.758Z,3.22
2022-10-14T07:26:40.706Z,2.70
2022-10-14T07:29:07.934Z,3.30
2022-10-14T07:31:35.418Z,3.28
2022-10-14T07:34:02.821Z,2.50
2022-10-14T07:36:29.839Z,2.88
2022-10-14T07:38:56.900Z,3.45
2022-10-14T07:41:25.365Z,2.90
2022-10-14T07:43:54.921Z,2.30
2022-10-14T07:46:32.435Z,3.42
2022-10-14T07:49:01.891Z,2.55
2022-10-14T07:51:28.859Z,2.75
2022-10-14T07:53:57.690Z,3.15
2022-10-14T07:56:25.355Z,2.80
2022-10-14T07:58:52.740Z,2.70
2022-10-14T08:01:20.049Z,4.28
2022-10-14T08:03:48.387Z,2.85
2022-10-14T08:06:18.483Z,3.30
2022-10-14T08:08:45.545Z,2.50
2022-10-14T08:11:24.165Z,3.20
2022-10-14T08:13:51.916Z,3.00
2022-10-14T08:16:21.558Z,3.40
2022-10-14T08:18:48.636Z,3.38
2022-10-14T08:21:17.140Z,3.60
2022-10-14T08:23:44.627Z,3.22
2022-10-14T08:26:26.600Z,2.80
2022-10-14T08:28:53.977Z,2.70
2022-10-14T08:31:24.022Z,3.17
2022-10-14T08:33:51.312Z,3.03
2022-10-14T08:36:19.142Z,3.08
2022-10-14T08:38:46.517Z,2.67
2022-10-14T08:41:13.683Z,3.03
2022-10-14T08:43:47.104Z,2.40
2022-10-14T08:46:19.367Z,2.50
2022-10-14T08:48:47.975Z,3.17
2022-10-14T08:51:17.646Z,2.70
2022-10-14T08:53:50.476Z,3.58
2022-10-14T08:56:19.618Z,3.20
2022-10-14T08:58:53.636Z,2.70
2022-10-14T09:01:32.395Z,2.58
2022-10-14T09:04:08.260Z,2.60
2022-10-14T09:06:38.836Z,2.20
2022-10-14T09:09:21.129Z,2.42
2022-10-14T09:11:53.875Z,3.00
2022-10-14T09:14:25.218Z,3.30
2022-10-14T09:17:00.118Z,2.40
2022-10-14T09:20:00.112Z,3.03
2022-10-14T09:22:29.106Z,2.75
2022-10-14T09:24:58.064Z,2.63
2022-10-14T09:27:25.754Z,3.20
2022-10-14T09:30:09.398Z,2.95
2022-10-14T09:32:44.531Z,2.97
2022-10-14T09:35:20.538Z,2.40
2022-10-14T09:37:47.641Z,3.42
2022-10-14T09:40:33.695Z,3.75
2022-10-14T09:43:09.888Z,3.38
2022-10-14T09:45:59.428Z,2.88
2022-10-14T09:48:49.310Z,3.53
2022-10-14T09:51:26.806Z,4.20
2022-10-14T09:54:00.000Z,4.00
2022-10-14T09:56:40.647Z,3.22
2022-10-14T09:59:20.905Z,2.90
2022-10-14T10:01:53.354Z,3.20
2022-10-14T10:04:47.612Z,3.47
2022-10-14T10:07:34.848Z,3.45
2022-10-14T10:10:16.236Z,3.25
2022-10-14T10:12:47.067Z,3.17
2022-10-14T10:15:21.328Z,2.75
2022-10-14T10:17:49.666Z,3.33
2022-10-14T10:20:19.757Z,3.53
2022-10-14T10:22:48.231Z,3.42
2022-10-14T10:25:18.764Z,3.38
2022-10-14T10:27:47.852Z,3.35
2022-10-14T10:30:24.451Z,3.38
2022-10-14T10:32:58.750Z,3.30
2022-10-14T10:35:34.040Z,3.03
2022-10-14T10:38:23.289Z,3.55
2022-10-14T10:41:21.935Z,3.17
2022-10-14T10:44:17.937Z,3.25
2022-10-14T10:46:55.209Z,2.92
2022-10-14T10:50:00.008Z,3.00
2022-10-14T10:52:40.981Z,2.88
2022-10-14T10:55:24.228Z,3.80
2022-10-14T10:57:59.355Z,3.00
2022-10-14T11:00:30.160Z,3.50
2022-10-14T11:03:17.976Z,3.27
2022-10-14T11:05:55.441Z,2.78
2022-10-14T11:09:23.219Z,3.42
2022-10-14T11:12:17.841Z,2.78
2022-10-14T11:14:59.855Z,2.63
2022-10-14T11:17:31.187Z,2.25
2022-10-14T11:20:23.512Z,2.58
2022-10-14T11:22:55.371Z,2.08
2022-10-14T11:28:24.589Z,1.90
2022-10-14T11:31:02.613Z,2.35
2022-10-14T11:33:48.379Z,2.75
2022-10-14T11:36:37.337Z,2.33
2022-10-14T11:39:23.105Z,1.83
2022-10-14T11:42:13.941Z,2.55
2022-10-14T11:44:43.385Z,2.05
2022-10-14T11:47:24.893Z,2.45
2022-10-14T11:50:05.364Z,2.35
2022-10-14T11:52:38.081Z,1.83
2022-10-14T11:55:19.406Z,1.80
2022-10-14T11:57:53.545Z,1.83
2022-10-14T12:00:22.542Z,1.13
2022-10-14T12:03:14.809Z,1.38
2022-10-14T12:05:56.502Z,1.40
2022-10-14T12:08:33.138Z,1.52
2022-10-14T12:11:20.457Z,1.63
2022-10-14T12:13:49.549Z,1.73
2022-10-14T12:16:22.746Z,2.20
2022-10-14T12:18:57.260Z,1.90
2022-10-14T12:21:49.725Z,2.13
2022-10-14T12:24:21.726Z,2.22
2022-10-14T12:27:02.160Z,2.65
2022-10-14T12:29:32.686Z,2.28
2022-10-14T12:32:07.833Z,2.08
2022-10-14T12:34:36.037Z,2.67
2022-10-14T12:37:28.750Z,2.70
2022-10-14T12:40:13.366Z,2.60
2022-10-14T12:45:21.223Z,2.33
2022-10-14T12:48:00.935Z,2.75
2022-10-14T12:50:38.724Z,2.90
2022-10-14T12:53:16.116Z,2.55
2022-10-14T12:55:53.537Z,2.70
2022-10-14T12:58:42.328Z,2.40
2022-10-14T13:01:21.992Z,3.00
2022-10-14T13:04:05.644Z,2.92
2022-10-14T13:06:35.894Z,3.30
2022-10-14T13:09:31.196Z,2.67
2022-10-14T13:11:58.171Z,3.05
2022-10-14T13:14:28.189Z,3.17
2022-10-14T13:17:15.731Z,3.28
2022-10-14T13:19:44.602Z,2.80
2022-10-14T13:22:33.125Z,3.28
2022-10-14T13:25:28.644Z,3.00
2022-10-14T13:28:08.433Z,2.80
2022-10-14T13:31:08.494Z,3.80
2022-10-14T13:33:50.672Z,3.17
2022-10-14T13:36:28.817Z,3.22
2022-10-14T13:38:59.374Z,3.40
2022-10-14T13:41:30.744Z,3.80
2022-10-14T13:46:39.511Z,3.90
2022-10-14T13:52:06.109Z,4.25
2022-10-14T13:54:33.364Z,3.60
2022-10-14T13:57:47.764Z,3.50
2022-10-14T14:02:53.342Z,3.67
2022-10-14T14:05:26.399Z,3.42
2022-10-14T14:11:10.974Z,3.67
2022-10-14T14:13:33.674Z,4.40
2022-10-14T14:16:00.977Z,6.72
2022-10-14T14:18:43.170Z,4.30
2022-10-14T14:21:22.738Z,4.20
2022-10-14T14:23:52.053Z,4.00
2022-10-14T14:26:19.970Z,4.93
2022-10-14T14:28:48.686Z,4.82
2022-10-14T14:31:22.251Z,5.00
2022-10-14T14:33:49.309Z,6.95
2022-10-14T14:36:27.574Z,7.75
2022-10-14T14:39:01.163Z,6.88
2022-10-14T14:41:33.100Z,7.55
2022-10-14T14:44:24.459Z,6.55
2022-10-14T14:46:57.956Z,5.18
2022-10-14T14:49:35.308Z,5.65
2022-10-14T14:52:04.723Z,4.85
2022-10-14T14:54:31.770Z,6.25
2022-10-14T14:57:20.131Z,7.80
2022-10-14T15:00:07.002Z,5.07
2022-10-14T15:02:35.139Z,9.77
2022-10-14T15:05:09.392Z,6.18
2022-10-14T15:07:38.262Z,4.70
2022-10-14T15:10:42.024Z,5.03
2022-10-14T15:13:46.608Z,5.22
2022-10-14T15:17:04.818Z,4.10
2022-10-14T15:19:45.400Z,3.65
2022-10-14T15:22:29.708Z,3.60
2022-10-14T15:25:03.388Z,4.40
2022-10-14T15:27:42.823Z,3.72
2022-10-14T15:30:38.006Z,3.53
2022-10-14T15:33:28.010Z,3.00
2022-10-14T15:38:44.723Z,2.85
2022-10-14T15:41:21.283Z,3.22
2022-10-14T15:43:49.435Z,3.50
2022-10-14T15:46:43.922Z,3.03
2022-10-14T15:52:26.863Z,3.08
2022-10-14T15:55:04.182Z,3.15
2022-10-14T15:57:41.156Z,3.08
2022-10-14T16:00:09.670Z,3.80
2022-10-14T16:02:43.679Z,3.42
2022-10-14T16:05:19.785Z,3.33
2022-10-14T16:07:49.961Z,3.33
2022-10-14T16:10:21.388Z,3.05
2022-10-14T16:12:52.000Z,3.05
2022-10-14T16:15:57.490Z,3.30
2022-10-14T16:18:26.450Z,2.88
2022-10-14T16:20:58.818Z,2.78
2022-10-14T16:23:29.740Z,3.25
2022-10-14T16:26:00.635Z,3.65
2022-10-14T16:31:16.312Z,3.13
2022-10-14T16:33:45.759Z,3.15
2022-10-14T16:36:24.668Z,3.30
2022-10-14T16:39:00.452Z,3.55
2022-10-14T16:41:32.169Z,2.95
2022-10-14T16:44:08.722Z,2.92
2022-10-14T16:47:14.180Z,3.70
2022-10-14T16:49:43.950Z,6.82
2022-10-14T16:52:12.130Z,7.30
2022-10-14T16:54:39.405Z,6.55
2022-10-14T16:57:13.619Z,6.45
2022-10-14T16:59:43.711Z,5.85
2022-10-14T17:02:16.227Z,5.57
2022-10-14T17:04:46.722Z,4.85
2022-10-14T17:07:20.911Z,3.65
2022-10-14T17:09:51.345Z,3.88
2022-10-14T17:12:20.295Z,4.00
2022-10-14T17:14:52.518Z,4.60
2022-10-14T17:17:19.791Z,3.35
2022-10-14T17:19:50.830Z,3.80
2022-10-14T17:22:22.292Z,3.67
2022-10-14T17:24:51.503Z,3.22
2022-10-14T17:27:24.082Z,3.92
2022-10-14T17:29:56.011Z,3.78
2022-10-14T17:32:23.903Z,4.00
2022-10-14T17:34:56.523Z,5.07
2022-10-14T17:37:23.991Z,4.38
2022-10-14T17:39:54.964Z,4.85
2022-10-14T17:42:22.844Z,6.00
2022-10-14T17:44:51.232Z,5.65
2022-10-14T17:47:19.620Z,6.28
2022-10-14T17:49:47.685Z,6.13
2022-10-14T17:52:15.189Z,7.13
2022-10-14T17:54:43.521Z,4.95
2022-10-14T17:57:14.509Z,4.53
2022-10-14T17:59:43.426Z,4.75
2022-10-14T18:02:18.791Z,5.03
2022-10-14T18:05:19.779Z,4.13
2022-10-14T18:09:21.149Z,5.28
2022-10-14T18:14:46.263Z,5.22
2022-10-14T18:20:37.913Z,5.32
2022-10-14T18:23:12.880Z,6.05
2022-10-14T18:26:10.978Z,7.40
2022-10-14T18:29:12.925Z,6.80
2022-10-14T18:38:57.413Z,6.85
2022-10-14T18:41:26.105Z,6.63
2022-10-14T18:44:34.693Z,5.65
2022-10-14T18:47:22.803Z,7.15
2022-10-14T18:49:52.532Z,7.15
2022-10-14T18:52:49.076Z,7.25
2022-10-14T18:55:26.183Z,7.72
2022-10-14T18:58:00.266Z,7.38
2022-10-14T19:00:34.206Z,8.25
2022-10-14T19:03:03.871Z,6.40
2022-10-14T19:05:37.998Z,5.53
2022-10-14T19:08:32.006Z,6.22
2022-10-14T19:11:30.956Z,6.03
2022-10-14T19:14:27.130Z,14.18
2022-10-14T19:18:18.613Z,8.10
2022-10-14T19:21:48.475Z,6.55
2022-10-14T19:24:33.541Z,6.47
2022-10-14T19:27:39.564Z,5.65
2022-10-14T19:30:33.752Z,5.35
2022-10-14T19:33:13.584Z,6.30
2022-10-14T19:36:14.502Z,5.18
2022-10-14T19:39:02.371Z,5.25
2022-10-14T19:41:52.859Z,6.15
2022-10-14T19:44:27.920Z,5.90
2022-10-14T19:46:59.128Z,6.10
2022-10-14T19:49:37.271Z,5.50
2022-10-14T19:52:10.951Z,5.50
2022-10-14T19:54:53.120Z,6.00
2022-10-14T19:57:25.760Z,5.57
2022-10-14T20:00:05.606Z,4.72
2022-10-14T20:03:03.355Z,5.70
2022-10-14T20:05:38.100Z,5.47
2022-10-14T20:08:26.685Z,6.28
2022-10-14T20:11:11.715Z,6.60
2022-10-14T20:14:05.257Z,5.53
2022-10-14T20:16:45.486Z,7.95
2022-10-14T20:19:19.369Z,7.35
2022-10-14T20:21:56.790Z,6.13
2022-10-14T20:24:34.315Z,6.25
2022-10-14T20:27:04.594Z,6.82
2022-10-14T20:30:00.579Z,5.47
2022-10-14T20:32:28.379Z,6.75
2022-10-14T20:35:10.460Z,6.07
2022-10-14T20:37:45.629Z,6.30
2022-10-14T20:40:17.649Z,5.72
2022-10-14T20:42:49.991Z,6.18
2022-10-14T20:45:19.266Z,7.13
2022-10-14T20:47:53.527Z,6.82
2022-10-14T20:50:24.570Z,6.35
2022-10-14T20:53:16.286Z,6.38
2022-10-14T20:55:47.329Z,5.95
2022-10-14T20:58:32.659Z,6.45
2022-10-14T21:01:30.567Z,5.95
2022-10-14T21:04:17.928Z,5.32
2022-10-14T21:06:54.718Z,5.90
2022-10-14T21:09:23.265Z,6.32
2022-10-14T21:11:51.183Z,6.15
2022-10-14T21:14:49.797Z,6.10
2022-10-14T21:17:26.467Z,6.38
2022-10-14T21:19:57.742Z,8.10
2022-10-14T21:22:26.010Z,7.72
2022-10-14T21:25:06.037Z,5.82
2022-10-14T21:27:40.944Z,5.40
2022-10-14T21:30:10.726Z,5.75
2022-10-14T21:32:49.329Z,5.72
2022-10-14T21:35:16.854Z,6.25
2022-10-14T21:37:45.059Z,6.05
2022-10-14T21:40:22.481Z,6.78
2022-10-14T21:42:53.591Z,6.10
2022-10-14T21:46:09.627Z,5.22
2022-10-14T21:48:59.305Z,6.57
2022-10-14T21:51:32.678Z,6.22
2022-10-14T21:54:11.680Z,8.00
2022-10-14T21:56:41.912Z,5.50
2022-10-14T21:59:10.717Z,6.22
2022-10-14T22:01:48.617Z,5.70
2022-10-14T22:04:25.545Z,5.78
2022-10-14T22:07:01.337Z,6.32
2022-10-14T22:09:29.082Z,5.82
2022-10-14T22:11:57.186Z,6.22
2022-10-14T22:14:32.182Z,6.22
2022-10-14T22:17:20.299Z,6.53
2022-10-14T22:19:53.339Z,5.80
2022-10-14T22:22:30.458Z,6.70
2022-10-14T22:25:11.183Z,6.95
2022-10-14T22:27:42.141Z,6.35
2022-10-14T22:30:10.424Z,7.18
2022-10-14T22:32:38.370Z,6.68
2022-10-14T22:35:21.397Z,7.63
2022-10-14T22:37:48.954Z,7.57
2022-10-14T22:40:18.549Z,7.85
2022-10-14T22:42:51.359Z,6.60
2022-10-14T22:45:19.218Z,7.70
2022-10-14T22:47:52.698Z,7.70
2022-10-14T22:50:34.806Z,7.38
2022-10-14T22:53:10.143Z,7.15
2022-10-14T22:55:37.381Z,8.55
2022-10-14T23:00:50.780Z,7.55
2022-10-14T23:03:18.059Z,8.32
2022-10-14T23:05:49.031Z,7.57
2022-10-14T23:08:18.108Z,7.72
2022-10-14T23:10:55.756Z,8.10
2022-10-14T23:13:23.716Z,8.65
2022-10-14T23:18:58.859Z,7.97
2022-10-14T23:21:29.461Z,8.23
2022-10-14T23:24:32.765Z,8.77
2022-10-14T23:27:02.832Z,8.68
2022-10-14T23:29:30.380Z,6.97
2022-10-14T23:32:00.653Z,8.55
2022-10-14T23:34:41.012Z,7.03
2022-10-14T23:37:08.407Z,6.80
2022-10-14T23:39:46.026Z,8.65
2022-10-14T23:42:22.471Z,8.35
2022-10-14T23:44:54.810Z,7.43
2022-10-14T23:47:23.584Z,7.35
2022-10-14T23:49:52.385Z,7.82
2022-10-14T23:52:28.962Z,8.15
2022-10-14T23:57:36.950Z,7.43
